Terminal Aerodrome Forecast
Issued by NWS

Current Version | Previous Version | Text Only | Print | Product List | Glossary Off
Versions: 1 2 3 4 5 6 7 8 9 10 11 12 13 14 15 16

059
FTUS41 KPBZ 031422 AAA
TAFMGW
TAF AMD
KMGW 031422Z 0314/0412 18011KT 4SM -RA OVC090 WS020/18050KT
      TEMPO 0314/0316 2SM -SHRA BR BKN015
     FM031600 19012G22KT P6SM -SHRA BKN035 WS020/20040KT
     FM031900 23012G22KT P6SM BKN040
     FM040100 27012KT P6SM SCT040=

USA.gov is the U.S. government's official web portal to all federal, state and local government web resources and services.